Terminal Aerodrome Forecast
Issued by NWS Milwaukee/Sullivan, WI

Home | Current Version | Previous Version | Text Only | Print | Product List | Glossary On
Versions: 1 2 3 4 5 6 7 8 9 10 11 12 13 14 15 16 17
000
FTUS43 KMKX 260520
TAFMSN
TAF
KMSN 260520Z 2606/2706 15008KT P6SM VCSH BKN080
     FM261200 17008KT P6SM -SHRA OVC050
     FM261700 20011KT P6SM SHRA VCTS SCT025 BKN040CB
     FM270000 26007KT P6SM OVC020
     FM270300 29006KT P6SM OVC015=

USA.gov is the U.S. government's official web portal to all federal, state and local government web resources and services.